Malta Bend, Missouri
Current Conditions -  °F | °C
As of 10:58 AM on Saturday 25 Oct 2014 (Local Time) from KSZL Reporting Station
Haze Haze  
Wind Chill: 19°   Ceiling: Unl
Heat Index: 19°   Visibility: 6mi
Dew Point: 17°   Wind: 3mph
Humidity: 88%   Direction: 30°NNE
Pressure: 30.08"   Gusts: NA
Location:  39.19°N, 93.36°W
Report Text: KSZL 251558Z 03003KT 6SM HZ FEW002 19/17 A3008 RMK AO2A SLP185 T01920171 $
Loading
Personal Weather Stations






























Interactive Weather Map
Tropical Storm Tracking
New forecast layout! Learn more

10-Day Weather Forecast

Advertisements
Track Severe Weather on mobile